Latest Weather Observations for Giles*

IDD60801

Issued at 9:01 am CST Sunday 22 January 2017 (issued every 30 minutes, with the page automatically refreshed every 10 minutes)

About weather observations | Map of weather stations | Latest weather observations for NT | Other Formats
Station Details ID: 013017 Name: GILES METEOROLOGICAL OFFICE Lat: -25.03 Lon: 128.30 Height: 598.0 m
Data from the previous 72 hours. | See also: Recent months at Giles*

* Giles observations are collected in the South Australia time zone, which includes daylight saving in the summer period. Therefore, Rain since 9am value is with respect to South Australia local time.

Date/Time
CST
Temp
°C
App
Temp
°C
Dew
Point
°C
Rel
Hum
%
Delta-T
°C
Wind Press
QNH
hPa
Press
MSL
hPa
Rain since
9am
mm
Dir  Spd
km/h
Gust
km/h
Spd
kts
Gust
kts
22/08:30am 28.1 30.1 20.7 64 5.0 NNW 11 20 6 11 1012.2 1007.2 0.0
22/08:00am 28.1 30.5 20.9 65 4.9 NNW 9 13 5 7 1012.1 1007.1 0.4
22/07:30am 26.0 29.2 21.6 76 3.0 ENE 7 9 4 5 1012.1 1007.1 0.4
22/07:00am 25.4 27.9 21.1 77 2.9 ENE 9 11 5 6 1011.7 1006.8 0.4
22/06:30am 25.1 28.3 21.6 81 2.4 N 7 9 4 5 1011.3 1006.4 0.4
22/06:00am 25.1 29.5 21.4 80 2.5 CALM 0 0 0 0 1011.0 1006.1 0.4
22/05:30am 25.3 29.7 21.3 78 2.7 CALM 0 0 0 0 1010.9 1006.0 0.4
22/05:02am 25.6 27.8 20.5 73 3.4 NW 9 11 5 6 1010.5 1005.5 0.4
22/05:00am 25.6 28.2 20.5 73 3.4 NW 7 11 4 6 1010.5 1005.5 0.4
22/04:30am 25.7 28.3 20.5 73 3.5 W 7 9 4 5 1010.2 1005.2 0.4
22/04:00am 25.7 27.8 21.0 75 3.2 NNW 11 15 6 8 1009.7 1004.8 0.4
22/03:30am 26.2 28.8 21.2 74 3.4 N 9 11 5 6 1009.5 1004.6 0.4
22/03:00am 26.7 29.4 21.4 72 3.6 NNW 9 9 5 5 1009.7 1004.8 0.4
22/02:30am 27.1 30.6 21.1 69 4.1 NW 4 9 2 5 1009.6 1004.7 0.4
22/02:00am 27.1 30.4 21.8 73 3.6 NW 7 9 4 5 1009.7 1004.8 0.4
22/01:30am 27.3 30.1 21.6 71 3.9 NNW 9 11 5 6 1009.8 1004.9 0.4
22/01:00am 27.9 30.3 21.6 68 4.3 NNW 11 13 6 7 1010.0 1005.1 0.4
22/12:30am 28.1 31.1 22.0 69 4.2 N 9 11 5 6 1010.3 1005.3 0.4
22/12:00am 28.6 31.9 21.8 66 4.7 NW 7 9 4 5 1010.5 1005.5 0.4
 
Date/Time
CST
Temp
°C
App
Temp
°C
Dew
Point
°C
Rel
Hum
%
Delta-T
°C
Wind Press
QNH
hPa
Press
MSL
hPa
Rain since
9am
mm
Dir  Spd
km/h
Gust
km/h
Spd
kts
Gust
kts
21/11:30pm 28.9 32.4 21.9 66 4.8 NNW 6 7 3 4 1010.7 1005.7 0.4
21/11:00pm 28.7 32.8 23.0 71 4.0 N 6 6 3 3 1010.5 1005.5 0.4
21/10:30pm 29.2 32.5 21.9 64 5.0 N 7 11 4 6 1010.4 1005.4 0.4
21/10:00pm 29.2 32.5 21.9 64 5.0 N 7 11 4 6 1010.3 1005.3 0.4
21/09:30pm 29.1 32.4 22.5 67 4.6 N 9 11 5 6 1009.9 1005.0 0.4
21/09:00pm 29.3 32.4 22.1 65 5.0 N 9 9 5 5 1009.6 1004.7 0.4
21/08:30pm 30.0 32.7 21.4 60 5.9 NNW 9 9 5 5 1009.2 1004.2 0.4
21/08:00pm 30.1 33.5 22.0 62 5.6 N 7 9 4 5 1008.8 1003.8 0.4
21/07:30pm 30.6 33.5 21.8 59 6.1 N 9 11 5 6 1008.2 1003.3 0.4
21/07:00pm 31.8 32.7 20.0 49 8.0 N 15 20 8 11 1007.9 1003.0 0.4
21/06:30pm 32.5 32.6 20.3 48 8.3 N 20 28 11 15 1007.6 1002.6 0.4
21/06:00pm 33.3 33.6 19.7 44 9.2 N 17 24 9 13 1007.3 1002.3 0.4
21/05:30pm 33.1 34.1 21.0 49 8.3 N 17 26 9 14 1007.4 1002.4 0.4
21/05:00pm 32.9 32.8 19.9 46 8.8 NNE 20 28 11 15 1007.3 1002.3 0.4
21/04:30pm 32.7 33.5 20.6 49 8.3 NNE 17 28 9 15 1007.4 1002.4 0.4
21/04:00pm 32.6 32.9 20.3 48 8.4 N 19 24 10 13 1007.8 1002.9 0.2
21/03:30pm 32.2 33.7 20.5 50 8.0 N 13 24 7 13 1008.1 1003.2 0.2
21/03:00pm 28.7 31.1 23.0 71 4.0 NNW 15 39 8 21 1008.8 1003.8 0.2
21/02:30pm 32.2 34.1 20.5 50 8.0 N 11 15 6 8 1008.8 1003.8 0.0
21/02:00pm 32.3 32.3 20.2 48 8.2 N 20 30 11 16 1009.1 1004.1 0.0
21/01:30pm 32.3 33.6 20.8 50 7.9 NNE 15 26 8 14 1009.2 1004.2 0.0
21/01:00pm 31.3 31.5 20.2 51 7.5 N 19 28 10 15 1009.6 1004.7 0.0
21/12:30pm 31.7 32.6 20.9 52 7.4 N 17 26 9 14 1009.8 1004.9 0.0
21/12:00pm 31.4 32.3 21.5 55 6.8 NNE 19 28 10 15 1010.2 1005.2 0.0
21/11:30am 30.6 32.4 21.9 59 6.0 N 15 22 8 12 1010.5 1005.5 0.0
21/11:00am 30.3 32.4 22.4 62 5.5 NNE 15 24 8 13 1010.8 1005.9 0.0
21/10:30am 28.9 31.8 23.2 71 4.0 NNE 13 24 7 13 1011.0 1006.1 0.0
21/10:00am 27.6 31.2 23.0 76 3.2 NNW 9 13 5 7 1011.3 1006.4 0.0
21/09:30am 27.4 30.3 23.1 77 3.0 N 13 17 7 9 1011.3 1006.4 0.0
21/09:00am 26.6 29.5 23.2 81 2.4 N 13 19 7 10 1011.2 1006.3 0.0
21/08:30am 26.0 29.7 23.9 88 1.5 N 11 15 6 8 1011.0 1006.1 0.0
21/08:00am 25.1 27.6 23.2 89 1.3 N 15 20 8 11 1011.0 1006.1 4.6
21/07:30am 25.7 29.3 23.1 85 1.8 N 9 11 5 6 1010.6 1005.6 4.4
21/07:00am 25.2 29.1 22.9 87 1.6 NNE 7 9 4 5 1010.0 1005.1 4.4
21/06:30am 24.8 29.4 23.1 90 1.2 NNE 4 7 2 4 1009.7 1004.8 4.4
21/06:00am 25.2 29.1 22.9 87 1.6 N 7 9 4 5 1009.0 1004.0 4.4
21/05:30am 24.9 27.8 23.2 90 1.2 N 13 13 7 7 1008.7 1003.7 4.4
21/05:00am 24.9 27.6 22.9 89 1.4 NNE 13 17 7 9 1008.2 1003.3 4.4
21/04:30am 24.7 28.5 23.4 92 0.9 ENE 9 13 5 7 1008.1 1003.2 4.4
21/04:00am 25.7 28.9 23.0 85 1.9 ENE 11 17 6 9 1007.9 1003.0 3.6
21/03:30am 25.3 29.8 23.6 90 1.2 NE 6 13 3 7 1007.9 1003.0 3.6
21/03:00am 25.5 29.1 23.8 90 1.2 E 11 15 6 8 1007.8 1002.9 2.8
21/02:30am 25.1 29.7 24.1 94 0.7 SE 7 9 4 5 1007.9 1003.0 2.8
21/02:00am 25.3 29.4 23.9 92 1.0 SE 9 11 5 6 1007.9 1003.0 2.8
21/01:30am 25.3 28.6 23.9 92 1.0 ESE 13 17 7 9 1008.2 1003.3 2.8
21/01:00am 25.4 28.6 23.7 90 1.2 ESE 13 17 7 9 1008.5 1003.5 2.8
21/12:30am 25.5 29.0 23.6 89 1.3 ESE 11 15 6 8 1008.9 1003.9 2.8
21/12:00am 25.5 29.0 23.6 89 1.3 ESE 11 15 6 8 1008.9 1003.9 2.8
 
Date/Time
CST
Temp
°C
App
Temp
°C
Dew
Point
°C
Rel
Hum
%
Delta-T
°C
Wind Press
QNH
hPa
Press
MSL
hPa
Rain since
9am
mm
Dir  Spd
km/h
Gust
km/h
Spd
kts
Gust
kts
20/11:30pm 25.6 29.5 23.6 89 1.4 ESE 9 13 5 7 1008.9 1003.9 2.8
20/11:00pm 25.5 28.6 23.5 89 1.4 ESE 13 19 7 10 1008.9 1003.9 2.8
20/10:30pm 25.8 27.7 23.4 86 1.7 ESE 19 26 10 14 1009.0 1004.0 2.8
20/10:00pm 26.0 29.5 24.2 90 1.3 ESE 13 15 7 8 1009.0 1004.0 2.8
20/09:30pm 26.1 29.9 24.1 89 1.4 ESE 11 15 6 8 1008.7 1003.7 2.8
20/09:00pm 26.0 29.0 24.0 89 1.4 SE 15 22 8 12 1008.1 1003.2 2.8
20/08:30pm 26.1 29.8 24.5 91 1.1 SE 13 20 7 11 1007.7 1002.8 2.8
20/08:00pm 26.2 28.4 24.2 89 1.4 SSW 20 32 11 17 1007.1 1002.1 2.4
20/07:30pm 29.5 31.3 22.5 66 4.9 SW 17 28 9 15 1006.8 1001.8 0.0
20/07:00pm 31.8 33.3 19.8 49 8.1 NNE 11 15 6 8 1005.9 1000.9 0.0
20/06:30pm 32.1 32.5 19.1 46 8.7 NNE 15 20 8 11 1005.7 1000.7 0.0
20/06:00pm 32.1 33.4 19.3 46 8.6 NNE 11 17 6 9 1005.3 1000.3 0.0
20/05:30pm 32.3 34.1 20.4 49 8.1 NE 11 19 6 10 1005.2 1000.2 0.0
20/05:00pm 33.0 34.3 20.1 46 8.8 NE 13 20 7 11 1005.3 1000.3 0.0
20/04:30pm 32.5 34.4 20.5 49 8.2 NNE 11 17 6 9 1005.5 1000.5 0.0
20/04:00pm 30.5 32.0 21.3 58 6.3 NNE 15 19 8 10 1005.9 1000.9 0.0
20/03:30pm 31.5 33.0 21.3 54 7.0 NE 15 22 8 12 1006.1 1001.1 0.0
20/03:00pm 32.0 32.2 19.3 47 8.5 NNW 17 28 9 15 1006.2 1001.3 0.0
20/02:30pm 31.3 31.3 20.1 51 7.6 N 20 30 11 16 1006.4 1001.5 0.0
20/02:00pm 31.5 31.7 20.5 52 7.5 N 20 30 11 16 1006.8 1001.8 0.0
20/01:30pm 31.0 32.3 21.6 57 6.5 NNE 17 22 9 12 1007.2 1002.2 0.0
20/01:00pm 30.2 30.8 21.0 58 6.3 NNE 19 28 10 15 1007.6 1002.6 0.0
20/12:30pm 29.3 30.2 21.6 63 5.3 N 19 24 10 13 1008.0 1003.1 0.0
20/12:00pm 29.7 30.1 20.7 58 6.1 N 19 28 10 15 1008.2 1003.3 0.0
20/11:30am 29.9 31.6 22.3 63 5.3 NNE 17 28 9 15 1008.7 1003.7 0.0
20/11:00am 28.0 29.9 22.7 73 3.7 N 17 26 9 14 1008.9 1003.9 0.0
20/10:30am 27.7 30.2 22.5 73 3.6 NNW 13 17 7 9 1009.1 1004.1 0.0
20/10:00am 27.5 29.5 22.9 76 3.2 NNW 17 26 9 14 1009.1 1004.1 0.0
20/09:30am 27.0 29.9 23.1 79 2.7 N 13 19 7 10 1008.9 1003.9 0.0
20/09:17am 26.0 29.0 23.3 85 1.9 NNW 13 17 7 9 1008.9 1003.9 0.0
20/09:00am 25.6 27.8 23.2 86 1.7 N 17 24 9 13 1008.9 1003.9 0.0
20/08:30am 25.2 27.4 23.2 89 1.4 N 17 20 9 11 1008.7 1003.7 0.0
20/08:00am 25.1 27.2 23.1 89 1.4 N 17 20 9 11 1008.5 1003.5 3.8
20/07:30am 24.3 26.8 23.1 93 0.8 N 15 19 8 10 1008.0 1003.1 3.8
20/07:00am 24.1 26.6 23.2 95 0.6 N 15 17 8 9 1007.5 1002.5 3.8
20/06:30am 24.3 27.3 23.3 94 0.7 N 13 19 7 10 1007.0 1002.0 3.8
20/06:00am 24.1 27.6 22.8 92 0.9 N 9 11 5 6 1006.7 1001.7 3.8
20/05:30am 23.9 29.3 23.3 96 0.4 CALM 0 0 0 0 1006.3 1001.4 3.8
20/05:00am 24.1 28.3 23.1 94 0.7 NE 6 7 3 4 1006.1 1001.1 3.8
20/04:30am 23.9 28.2 23.3 96 0.4 SE 6 7 3 4 1005.9 1000.9 3.8
20/04:00am 24.0 29.4 23.3 96 0.5 CALM 0 0 0 0 1005.9 1000.9 3.8
20/03:30am 24.3 28.5 23.1 93 0.8 NW 6 7 3 4 1005.9 1000.9 3.8
20/03:00am 24.3 28.5 23.1 93 0.8 NNW 6 9 3 5 1006.0 1001.0 3.8
20/02:30am 24.2 27.9 23.2 94 0.7 WNW 9 11 5 6 1006.3 1001.4 3.4
20/02:00am 25.2 30.8 23.5 90 1.2 CALM 0 9 0 5 1006.5 1001.6 3.4
20/01:30am 25.1 30.1 23.8 92 0.9 N 4 9 2 5 1006.8 1001.8 3.4
20/01:00am 24.9 30.7 23.9 94 0.7 CALM 0 0 0 0 1007.0 1002.0 3.4
20/12:30am 25.0 30.9 24.1 95 0.6 CALM 0 0 0 0 1007.3 1002.3 3.4
20/12:00am 24.9 29.7 24.2 96 0.5 NW 6 7 3 4 1007.1 1002.1 3.4
 
Date/Time
CST
Temp
°C
App
Temp
°C
Dew
Point
°C
Rel
Hum
%
Delta-T
°C
Wind Press
QNH
hPa
Press
MSL
hPa
Rain since
9am
mm
Dir  Spd
km/h
Gust
km/h
Spd
kts
Gust
kts
19/11:30pm 24.8 29.4 24.1 96 0.5 E 7 9 4 5 1007.1 1002.1 3.4
19/11:00pm 24.8 30.7 24.1 96 0.5 CALM 0 0 0 0 1007.0 1002.0 3.4
19/10:30pm 24.6 29.3 23.9 96 0.5 S 6 7 3 4 1007.1 1002.1 3.4
19/10:00pm 24.3 28.6 23.6 96 0.5 SSE 7 9 4 5 1006.8 1001.8 3.4
19/09:30pm 24.1 28.2 23.2 95 0.6 N 7 9 4 5 1007.0 1002.0 3.4
19/09:00pm 23.6 25.2 22.9 96 0.5 NW 19 30 10 16 1006.9 1001.9 3.2
19/08:36pm 26.0 27.5 23.1 84 2.0 NNW 20 43 11 23 1006.4 1001.5 0.2
19/08:30pm 26.6 29.5 22.4 78 2.9 N 11 19 6 10 1006.2 1001.3 0.2
19/08:00pm 26.3 30.5 22.5 79 2.6 NNW 4 9 2 5 1005.7 1000.7 0.2
19/07:30pm 26.7 27.7 22.8 79 2.7 NW 22 28 12 15 1005.9 1000.9 0.2
19/07:00pm 28.4 31.7 22.6 71 4.0 WNW 9 13 5 7 1005.4 1000.4 0.2
19/06:30pm 28.1 29.4 22.3 70 4.0 NNW 19 26 10 14 1005.2 1000.2 0.2
19/06:00pm 30.8 29.9 19.8 52 7.4 N 24 33 13 18 1004.5 999.5 0.2
19/05:30pm 31.8 31.5 20.3 50 7.8 N 22 33 12 18 1004.4 999.4 0.2
19/05:00pm 30.5 30.6 21.2 57 6.4 NNW 22 33 12 18 1004.6 999.7 0.2
19/04:30pm 32.7 32.4 20.4 48 8.4 N 22 30 12 16 1004.7 999.8 0.2
19/04:00pm 31.5 30.7 20.1 50 7.7 N 24 33 13 18 1005.1 1000.1 0.2
19/03:30pm 30.8 31.2 21.0 56 6.7 N 20 30 11 16 1005.4 1000.4 0.2
19/03:00pm 30.6 30.8 21.4 58 6.3 N 22 33 12 18 1005.8 1000.8 0.2
19/02:30pm 30.9 30.6 21.8 58 6.3 N 26 35 14 19 1006.0 1001.0 0.2
19/02:00pm 30.9 31.4 22.6 61 5.8 N 24 35 13 19 1006.4 1001.5 0.2
19/01:30pm 29.2 29.6 23.7 72 3.9 NNE 28 37 15 20 1006.9 1001.9 0.2
19/01:00pm 28.8 30.5 23.1 71 4.0 N 19 32 10 17 1007.3 1002.3 0.0
19/12:30pm 29.2 30.0 22.4 66 4.7 N 22 33 12 18 1007.3 1002.3 0.0
19/12:00pm 30.2 30.5 22.3 62 5.5 N 24 35 13 19 1007.6 1002.6 0.0
19/11:30am 29.1 29.5 22.5 67 4.6 N 24 33 13 18 1008.1 1003.2 0.0
19/11:00am 27.6 28.6 22.9 75 3.3 NNW 22 32 12 17 1008.8 1003.8 0.0
19/10:30am 28.5 28.9 22.4 69 4.2 N 24 35 13 19 1008.8 1003.8 0.0
19/10:00am 26.7 26.9 22.0 75 3.2 N 24 35 13 19 1009.2 1004.2 0.0
19/09:30am 26.6 27.3 22.2 77 3.0 N 22 32 12 17 1009.3 1004.4 0.0
19/09:00am 26.1 26.8 22.3 79 2.6 N 22 32 12 17 1009.3 1004.4 0.0
19/08:30am 25.9 27.0 22.4 81 2.4 NNE 20 30 11 16 1009.4 1004.5 0.0

Other Formats:

Comma delimited format used in spreadsheet applications
http://www.bom.gov.au/fwo/IDD60801/IDD60801.94461.axf

JavaScript Object Notation format (JSON) in row-major order
http://www.bom.gov.au/fwo/IDD60801/IDD60801.94461.json